Time;durP1;ratioP1;P1;durP2;ratioP2;P2;SDS_P1;SDS_P2;PMS_P1;PMS_P2;Temp;Humidity;BMP_temperature;BMP_pressure;BME280_temperature;BME280_humidity;BME280_pressure;Samples;Min_cycle;Max_cycle;Signal;HPM_P1;HPM_P2
2021/07/24 00:00:55;;;;;;;18.80;11.57;;;20.60;65.90;;;;;;4996071;28;20273;-91
2021/07/24 00:03:21;;;;;;;20.27;13.70;;;20.60;66.00;;;;;;4995517;28;20326;-91
2021/07/24 00:05:47;;;;;;;24.70;12.53;;;20.40;66.10;;;;;;4996280;28;20418;-91
2021/07/24 00:08:13;;;;;;;20.90;13.10;;;20.50;66.50;;;;;;4996996;28;20199;-92
2021/07/24 00:10:39;;;;;;;22.35;14.07;;;20.50;66.30;;;;;;4998338;28;20514;-92
2021/07/24 00:13:04;;;;;;;18.60;13.10;;;20.40;66.50;;;;;;4994357;28;20254;-91
2021/07/24 00:15:30;;;;;;;20.67;12.40;;;20.40;66.60;;;;;;4994714;28;20418;-92
2021/07/24 00:17:56;;;;;;;21.30;13.67;;;20.30;66.90;;;;;;5005580;28;20196;-89
2021/07/24 00:20:22;;;;;;;18.38;13.00;;;20.20;67.10;;;;;;5001679;28;20187;-91
2021/07/24 00:22:48;;;;;;;20.83;13.67;;;20.20;67.50;;;;;;4993976;28;20210;-91
2021/07/24 00:25:14;;;;;;;19.17;13.30;;;20.10;67.70;;;;;;4994678;28;20414;-92
2021/07/24 00:27:39;;;;;;;27.20;14.30;;;20.20;67.60;;;;;;4995923;28;20203;-92
2021/07/24 00:30:06;;;;;;;23.73;13.37;;;20.20;67.60;;;;;;4997266;28;20870;-92
2021/07/24 00:32:31;;;;;;;21.00;13.48;;;20.10;67.80;;;;;;4980283;28;20207;-92
2021/07/24 00:34:57;;;;;;;20.67;13.07;;;20.00;67.90;;;;;;4994311;28;20179;-92
2021/07/24 00:37:23;;;;;;;20.60;14.00;;;20.00;68.20;;;;;;4993921;28;20250;-92
2021/07/24 00:39:49;;;;;;;22.70;15.27;;;20.10;68.30;;;;;;4994711;28;20218;-92
2021/07/24 00:42:30;;;;;;;18.77;13.57;;;20.00;68.10;;;;;;4993628;28;20696;-92
2021/07/24 00:45:00;;;;;;;21.98;13.85;;;20.00;68.20;;;;;;4995939;28;20414;-92
2021/07/24 00:47:34;;;;;;;23.30;14.52;;;19.90;68.30;;;;;;4993608;28;20207;-92
2021/07/24 00:50:01;;;;;;;21.73;14.35;;;20.00;68.50;;;;;;4993814;28;20195;-92
2021/07/24 00:52:27;;;;;;;22.00;14.20;;;19.90;68.60;;;;;;5003926;28;20274;-91
2021/07/24 00:54:53;;;;;;;19.03;12.93;;;20.10;68.60;;;;;;4999276;28;20218;-91
2021/07/24 00:57:19;;;;;;;25.27;13.67;;;19.90;68.50;;;;;;4996612;28;20598;-92
2021/07/24 00:59:44;;;;;;;21.17;13.70;;;20.00;68.70;;;;;;4994031;28;20422;-92
2021/07/24 01:02:10;;;;;;;18.17;12.73;;;19.90;69.00;;;;;;4994361;28;20685;-91
2021/07/24 01:04:36;;;;;;;19.60;13.87;;;19.70;69.10;;;;;;4995234;28;20622;-91
2021/07/24 01:07:05;;;;;;;23.40;14.30;;;19.70;69.50;;;;;;4990422;28;20187;-92
2021/07/24 01:09:32;;;;;;;23.67;14.63;;;19.60;69.60;;;;;;4975668;28;20584;-92
2021/07/24 01:12:00;;;;;;;19.95;14.38;;;19.60;69.70;;;;;;4974025;28;20203;-92
2021/07/24 01:14:28;;;;;;;22.33;13.77;;;19.50;69.80;;;;;;4973768;28;20192;-91
2021/07/24 01:16:53;;;;;;;23.08;14.60;;;19.60;70.00;;;;;;4975444;28;20215;-92
2021/07/24 01:19:19;;;;;;;22.20;13.93;;;19.50;70.10;;;;;;4973947;28;20183;-92
2021/07/24 01:21:45;;;;;;;25.30;14.50;;;19.50;70.30;;;;;;4974613;28;20200;-93
2021/07/24 01:24:11;;;;;;;23.17;14.70;;;19.40;70.20;;;;;;4988628;28;20179;-90
2021/07/24 01:26:36;;;;;;;22.47;15.17;;;19.40;70.40;;;;;;4975831;28;20446;-92
2021/07/24 01:29:05;;;;;;;24.20;15.50;;;19.40;70.40;;;;;;4975436;28;20207;-92
2021/07/24 01:31:31;;;;;;;20.27;13.05;;;19.20;70.70;;;;;;4973833;28;20625;-92
2021/07/24 01:33:56;;;;;;;20.73;12.80;;;19.10;71.30;;;;;;4974913;28;20210;-91
2021/07/24 01:36:22;;;;;;;18.53;13.30;;;19.10;71.70;;;;;;4979405;28;20631;-92
2021/07/24 01:38:48;;;;;;;25.00;15.87;;;19.10;71.80;;;;;;4978220;28;20198;-91
2021/07/24 01:41:15;;;;;;;24.20;14.90;;;19.00;71.90;;;;;;4975665;28;20179;-91
2021/07/24 01:43:41;;;;;;;24.05;14.90;;;19.00;71.80;;;;;;4974884;28;20207;-92
2021/07/24 01:46:07;;;;;;;29.97;15.20;;;19.10;71.90;;;;;;4976403;28;20243;-92
2021/07/24 01:48:46;;;;;;;21.92;14.25;;;19.00;71.90;;;;;;4978459;28;20553;-92
2021/07/24 01:54:01;;;;;;;21.52;13.73;;;18.90;72.50;;;;;;4979672;28;20206;-91
2021/07/24 01:56:30;;;;;;;23.38;15.93;;;18.90;72.40;;;;;;4973684;28;20176;-92
2021/07/24 01:58:56;;;;;;;21.92;13.70;;;18.80;72.50;;;;;;4974350;28;20238;-92
2021/07/24 02:01:24;;;;;;;28.80;14.67;;;19.00;72.40;;;;;;4979645;28;20187;-91
2021/07/24 02:03:58;;;;;;;25.20;14.20;;;19.00;72.00;;;;;;4988424;28;20211;-92
2021/07/24 02:06:24;;;;;;;22.25;14.05;;;19.00;71.90;;;;;;4987897;28;20268;-92
2021/07/24 02:08:51;;;;;;;24.30;13.90;;;19.00;72.00;;;;;;4998359;28;20440;-91
2021/07/24 02:11:19;;;;;;;21.52;14.50;;;18.90;72.10;;;;;;4997900;28;20171;-92
2021/07/24 02:13:47;;;;;;;22.38;13.55;;;19.10;72.20;;;;;;4999526;28;20242;-92
2021/07/24 02:16:14;;;;;;;22.77;13.82;;;19.00;72.00;;;;;;4999980;28;20548;-92
2021/07/24 02:18:40;;;;;;;24.80;14.38;;;19.00;72.00;;;;;;4999033;28;20186;-92
2021/07/24 02:21:08;;;;;;;19.33;13.57;;;19.00;72.00;;;;;;4999162;28;20214;-91
2021/07/24 02:23:34;;;;;;;20.80;14.98;;;19.30;71.70;;;;;;4998854;28;20203;-92
2021/07/24 02:26:01;;;;;;;20.63;14.68;;;19.30;71.20;;;;;;5002805;28;20182;-92
2021/07/24 02:28:27;;;;;;;23.75;15.55;;;19.30;71.00;;;;;;4999609;28;20211;-92
2021/07/24 02:30:53;;;;;;;23.93;13.97;;;19.30;70.70;;;;;;5009794;28;20614;-92
2021/07/24 02:33:19;;;;;;;24.38;13.77;;;19.20;70.80;;;;;;4999863;28;20199;-92
2021/07/24 02:35:46;;;;;;;24.30;15.85;;;19.20;71.20;;;;;;4997549;28;20207;-91
2021/07/24 02:38:11;;;;;;;23.60;15.07;;;19.20;71.20;;;;;;4998314;28;20552;-92
2021/07/24 02:40:40;;;;;;;21.33;14.90;;;19.00;71.60;;;;;;4996799;28;20426;-92
2021/07/24 02:43:06;;;;;;;21.45;14.40;;;19.00;71.60;;;;;;4997171;28;20700;-91
2021/07/24 02:45:31;;;;;;;26.00;15.20;;;19.10;71.70;;;;;;5000611;28;20207;-91
2021/07/24 02:47:57;;;;;;;20.33;14.33;;;19.00;71.70;;;;;;5013000;28;20600;-91
2021/07/24 02:50:23;;;;;;;24.20;15.23;;;19.20;71.70;;;;;;4997200;28;20179;-91
2021/07/24 02:52:49;;;;;;;24.40;14.13;;;19.20;71.50;;;;;;4996606;28;20281;-92
2021/07/24 02:55:15;;;;;;;22.00;14.80;;;19.10;71.60;;;;;;4996299;28;20766;-92
2021/07/24 02:57:40;;;;;;;30.88;16.42;;;19.00;71.60;;;;;;4998958;28;20187;-91
2021/07/24 03:00:06;;;;;;;22.67;14.63;;;19.10;71.70;;;;;;4995756;28;20195;-91
2021/07/24 03:02:32;;;;;;;26.48;16.00;;;19.10;71.50;;;;;;4996299;28;20199;-91
2021/07/24 03:04:58;;;;;;;22.97;14.73;;;19.10;71.50;;;;;;4996150;28;20711;-92
2021/07/24 03:07:24;;;;;;;20.20;13.93;;;19.10;71.70;;;;;;4996565;28;20180;-91
2021/07/24 03:09:49;;;;;;;24.20;15.03;;;19.10;71.60;;;;;;5003186;28;20175;-92
2021/07/24 03:12:17;;;;;;;26.83;14.07;;;19.00;71.80;;;;;;5003155;28;20234;-91
2021/07/24 03:14:43;;;;;;;20.40;14.40;;;19.00;72.10;;;;;;5002822;28;20167;-91
2021/07/24 03:17:09;;;;;;;24.45;15.52;;;19.00;71.90;;;;;;5003834;28;20270;-91
2021/07/24 03:19:35;;;;;;;26.90;15.73;;;19.00;71.90;;;;;;5003489;28;20226;-92
2021/07/24 03:22:00;;;;;;;23.30;15.23;;;19.00;72.00;;;;;;5003483;28;20234;-91
2021/07/24 03:24:26;;;;;;;21.70;14.43;;;19.00;72.10;;;;;;5003864;28;20195;-91
2021/07/24 03:26:52;;;;;;;26.20;15.03;;;19.10;71.90;;;;;;5004227;28;20196;-92
2021/07/24 03:29:17;;;;;;;25.33;15.57;;;19.10;71.80;;;;;;5002806;28;20274;-91
2021/07/24 03:31:43;;;;;;;23.70;14.63;;;19.10;71.90;;;;;;5001406;28;20203;-92
2021/07/24 03:34:09;;;;;;;28.83;15.77;;;19.10;72.00;;;;;;5001407;28;20183;-91
2021/07/24 03:36:34;;;;;;;28.03;15.60;;;19.20;71.70;;;;;;5012867;28;20195;-91
2021/07/24 03:39:00;;;;;;;26.60;15.13;;;19.20;71.50;;;;;;4997259;28;20271;-92
2021/07/24 03:41:26;;;;;;;24.50;15.17;;;19.10;71.40;;;;;;4996594;28;20192;-91
2021/07/24 03:43:51;;;;;;;23.40;14.63;;;18.90;72.00;;;;;;5009506;28;20206;-91
2021/07/24 03:46:21;;;;;;;20.27;13.90;;;19.00;72.00;;;;;;4996740;28;20238;-91
2021/07/24 03:48:47;;;;;;;24.02;14.30;;;19.10;71.90;;;;;;4995729;28;20298;-92
2021/07/24 03:51:14;;;;;;;21.88;15.35;;;19.10;71.70;;;;;;4995338;28;20180;-92
2021/07/24 03:53:41;;;;;;;21.02;13.98;;;19.00;71.80;;;;;;4994824;28;20191;-92
2021/07/24 03:56:14;;;;;;;25.90;14.80;;;19.00;71.80;;;;;;4995044;28;20191;-92
2021/07/24 03:58:39;;;;;;;23.17;15.23;;;19.10;71.90;;;;;;4994945;28;20230;-92
2021/07/24 04:01:09;;;;;;;28.33;14.23;;;19.10;71.50;;;;;;4994678;28;20187;-91
2021/07/24 04:03:34;;;;;;;21.52;14.93;;;19.20;71.70;;;;;;4994928;28;20227;-91
2021/07/24 04:06:01;;;;;;;20.77;15.53;;;19.00;71.30;;;;;;4994988;28;20206;-91
2021/07/24 04:08:27;;;;;;;29.13;15.57;;;19.10;71.60;;;;;;4994800;28;20203;-92
2021/07/24 04:10:53;;;;;;;23.47;15.00;;;19.20;71.50;;;;;;4994437;28;20184;-91
2021/07/24 04:13:20;;;;;;;26.83;15.55;;;19.10;71.40;;;;;;4994210;28;20269;-91
2021/07/24 04:15:46;;;;;;;21.88;13.55;;;18.90;71.60;;;;;;4994855;28;20194;-92
2021/07/24 04:18:12;;;;;;;27.75;15.43;;;18.80;72.10;;;;;;4994487;28;20646;-91
2021/07/24 04:20:38;;;;;;;27.15;14.68;;;18.70;72.80;;;;;;4994314;28;20629;-91
2021/07/24 04:23:05;;;;;;;23.13;14.07;;;18.60;73.00;;;;;;4993972;28;20195;-91
2021/07/24 04:25:32;;;;;;;26.77;15.07;;;18.80;73.20;;;;;;4994585;28;20179;-91
2021/07/24 04:27:58;;;;;;;24.80;16.35;;;18.90;72.70;;;;;;4995962;28;20207;-91
2021/07/24 04:30:23;;;;;;;22.10;14.00;;;19.00;72.70;;;;;;4994129;28;20187;-92
2021/07/24 04:32:49;;;;;;;21.07;12.77;;;19.00;72.30;;;;;;4993936;28;20198;-92
2021/07/24 04:35:15;;;;;;;23.37;14.27;;;19.10;72.30;;;;;;4995458;28;20647;-92
2021/07/24 04:37:40;;;;;;;33.73;15.40;;;19.00;71.90;;;;;;4995170;28;20213;-91
2021/07/24 04:40:07;;;;;;;22.53;14.20;;;18.90;72.60;;;;;;5005883;28;20197;-91
2021/07/24 04:42:33;;;;;;;21.95;14.02;;;18.90;72.50;;;;;;5016969;28;20258;-93
2021/07/24 04:44:59;;;;;;;21.13;14.53;;;18.90;72.40;;;;;;4999140;28;20237;-92
2021/07/24 04:47:25;;;;;;;33.75;16.45;;;18.90;72.60;;;;;;4995037;28;20458;-92
2021/07/24 04:49:52;;;;;;;20.10;14.23;;;18.90;72.80;;;;;;4993867;28;20233;-92
2021/07/24 04:52:22;;;;;;;19.08;13.90;;;18.90;72.70;;;;;;4993588;28;20662;-91
2021/07/24 04:54:49;;;;;;;22.73;15.18;;;18.80;72.80;;;;;;4993844;28;20194;-91
2021/07/24 04:57:17;;;;;;;24.35;15.48;;;18.80;73.20;;;;;;4993790;28;20176;-91
2021/07/24 04:59:47;;;;;;;21.90;13.98;;;18.80;73.20;;;;;;4995800;28;20171;-91
2021/07/24 05:02:17;;;;;;;20.02;14.02;;;18.90;73.10;;;;;;4996725;28;20389;-92
2021/07/24 05:04:45;;;;;;;27.83;15.02;;;19.00;72.80;;;;;;4994385;28;20229;-92
2021/07/24 05:07:12;;;;;;;26.13;16.10;;;19.00;72.70;;;;;;4994109;28;20179;-91
2021/07/24 05:09:39;;;;;;;25.98;16.50;;;18.80;72.80;;;;;;4993523;28;20211;-92
2021/07/24 05:12:06;;;;;;;22.63;14.57;;;19.00;73.00;;;;;;4994507;28;20226;-92
2021/07/24 05:14:31;;;;;;;22.85;15.50;;;19.00;72.80;;;;;;4993584;28;20206;-91
2021/07/24 05:17:08;;;;;;;28.43;15.50;;;19.10;73.40;;;;;;4993497;28;20218;-91
2021/07/24 05:19:41;;;;;;;21.17;14.27;;;19.30;72.30;;;;;;4995495;28;20254;-91
2021/07/24 05:22:07;;;;;;;21.25;14.43;;;19.20;72.60;;;;;;4992913;28;20210;-92
2021/07/24 05:24:34;;;;;;;25.00;15.30;;;19.20;71.90;;;;;;4993484;28;20178;-91
2021/07/24 05:27:00;;;;;;;20.27;15.13;;;18.90;72.40;;;;;;4993437;28;20190;-91
2021/07/24 05:29:26;;;;;;;23.10;14.43;;;19.10;72.90;;;;;;4993477;28;20207;-91
2021/07/24 05:31:52;;;;;;;24.87;15.57;;;19.00;72.60;;;;;;4993138;28;20263;-92
2021/07/24 05:34:18;;;;;;;24.27;15.50;;;18.90;72.80;;;;;;4993034;28;20202;-91
2021/07/24 05:36:43;;;;;;;27.05;15.70;;;18.90;73.10;;;;;;4998306;28;20171;-91
2021/07/24 05:39:09;;;;;;;30.80;15.77;;;19.00;73.00;;;;;;4995922;28;20329;-91
2021/07/24 05:41:35;;;;;;;23.10;14.73;;;19.00;72.80;;;;;;4993638;28;20270;-91
2021/07/24 05:44:01;;;;;;;26.50;15.13;;;19.00;72.90;;;;;;4994318;28;20556;-92
2021/07/24 05:46:26;;;;;;;24.80;15.50;;;19.10;73.00;;;;;;4997615;28;20209;-92
2021/07/24 05:48:52;;;;;;;21.87;16.00;;;19.10;72.70;;;;;;5003106;28;20294;-92
2021/07/24 05:51:18;;;;;;;22.10;15.60;;;19.10;72.70;;;;;;4993153;28;20414;-91
2021/07/24 05:53:43;;;;;;;23.13;14.73;;;19.20;72.60;;;;;;4993055;28;20257;-92
2021/07/24 05:56:09;;;;;;;22.53;14.20;;;19.20;72.40;;;;;;4993381;28;20522;-91
2021/07/24 05:58:35;;;;;;;21.20;14.17;;;19.20;72.30;;;;;;4993580;28;20187;-91
2021/07/24 06:01:01;;;;;;;23.83;17.70;;;19.10;72.40;;;;;;4993125;28;20278;-91
2021/07/24 06:03:26;;;;;;;22.67;16.27;;;19.30;72.40;;;;;;4993797;28;20207;-92
2021/07/24 06:05:52;;;;;;;27.80;15.50;;;19.30;72.00;;;;;;4993211;28;20190;-91
2021/07/24 06:08:18;;;;;;;18.65;14.38;;;19.40;71.90;;;;;;4993067;28;20674;-91
2021/07/24 06:10:44;;;;;;;25.13;15.67;;;19.60;71.60;;;;;;4994749;28;20305;-92
2021/07/24 06:13:11;;;;;;;23.67;16.33;;;19.50;71.30;;;;;;4992870;28;20785;-91
2021/07/24 06:15:43;;;;;;;24.35;14.60;;;19.50;71.30;;;;;;4993266;28;20183;-92
2021/07/24 06:18:09;;;;;;;22.35;14.85;;;19.70;71.00;;;;;;4993027;28;20187;-92
2021/07/24 06:20:37;;;;;;;30.07;14.53;;;19.60;70.80;;;;;;4993306;28;20290;-92
2021/07/24 06:23:04;;;;;;;28.10;16.27;;;19.70;70.70;;;;;;4992993;28;20199;-92
2021/07/24 06:25:30;;;;;;;23.10;15.57;;;19.70;70.50;;;;;;4992614;28;20183;-91
2021/07/24 06:27:56;;;;;;;21.23;14.60;;;19.70;70.50;;;;;;4993381;28;20214;-91
2021/07/24 06:30:21;;;;;;;20.60;14.80;;;19.90;70.40;;;;;;4992457;28;20540;-91
2021/07/24 06:32:47;;;;;;;21.83;15.10;;;20.10;70.00;;;;;;4996935;28;20438;-92
2021/07/24 06:35:13;;;;;;;22.67;14.30;;;20.20;69.50;;;;;;4997118;28;20171;-92
2021/07/24 06:37:38;;;;;;;23.30;14.77;;;20.30;68.90;;;;;;4995990;28;20179;-92
2021/07/24 06:40:05;;;;;;;21.40;13.90;;;20.50;68.70;;;;;;4993119;28;20258;-92
2021/07/24 06:42:30;;;;;;;23.80;14.75;;;20.70;68.20;;;;;;4992408;28;20235;-92
2021/07/24 06:44:56;;;;;;;24.20;15.40;;;20.90;67.40;;;;;;4992573;28;20575;-91
2021/07/24 06:47:22;;;;;;;18.73;13.40;;;21.00;66.80;;;;;;4995001;28;20222;-92
2021/07/24 06:49:48;;;;;;;18.47;14.30;;;21.20;66.40;;;;;;4995949;28;20181;-92
2021/07/24 06:52:14;;;;;;;21.73;15.27;;;21.40;65.70;;;;;;4999793;28;20247;-91
2021/07/24 06:54:40;;;;;;;19.57;14.50;;;21.40;65.20;;;;;;5008229;28;20607;-92
2021/07/24 06:57:06;;;;;;;23.75;14.13;;;21.30;65.30;;;;;;4996548;28;20187;-92
2021/07/24 06:59:32;;;;;;;18.42;13.07;;;21.40;65.20;;;;;;4996873;28;20183;-92
2021/07/24 07:01:59;;;;;;;17.70;14.10;;;21.40;64.80;;;;;;4995751;28;20199;-92
2021/07/24 07:04:26;;;;;;;19.25;15.48;;;21.30;65.10;;;;;;4996445;28;20271;-91
2021/07/24 07:06:52;;;;;;;21.10;14.88;;;21.60;65.00;;;;;;4996937;28;20183;-92
2021/07/24 07:09:18;;;;;;;26.03;15.57;;;21.70;64.70;;;;;;4996487;28;20206;-92
2021/07/24 07:11:45;;;;;;;22.73;14.70;;;21.70;64.40;;;;;;5001680;28;20434;-91
2021/07/24 07:14:10;;;;;;;21.47;14.27;;;21.80;64.20;;;;;;5000329;28;20191;-91
2021/07/24 07:16:36;;;;;;;16.10;14.40;;;21.90;64.30;;;;;;4999846;28;20406;-92
2021/07/24 07:19:06;;;;;;;22.57;15.10;;;22.00;63.70;;;;;;4997442;28;20183;-92
2021/07/24 07:21:32;;;;;;;19.87;13.83;;;21.90;63.70;;;;;;4996716;28;20266;-91
2021/07/24 07:23:58;;;;;;;24.10;15.80;;;22.10;63.50;;;;;;4996974;28;20419;-91
2021/07/24 07:26:26;;;;;;;20.00;13.83;;;22.00;62.90;;;;;;4996932;28;20433;-92
2021/07/24 07:28:54;;;;;;;21.33;14.87;;;21.90;63.40;;;;;;4995346;28;20474;-92
2021/07/24 07:31:20;;;;;;;24.80;15.07;;;21.90;63.70;;;;;;4993199;28;20427;-92
2021/07/24 07:33:45;;;;;;;21.63;15.47;;;21.80;64.50;;;;;;4976474;28;20501;-92
2021/07/24 07:36:11;;;;;;;19.57;15.57;;;21.60;64.30;;;;;;4976527;28;20199;-91
2021/07/24 07:38:37;;;;;;;22.07;15.17;;;21.50;64.90;;;;;;4977933;28;20180;-92
2021/07/24 07:41:02;;;;;;;26.33;16.10;;;21.60;65.10;;;;;;4976017;28;20188;-91
2021/07/24 07:43:28;;;;;;;23.80;17.10;;;21.60;65.30;;;;;;4976890;28;20258;-91
2021/07/24 07:45:56;;;;;;;19.43;15.63;;;21.70;64.90;;;;;;4976445;28;20192;-91
2021/07/24 07:48:22;;;;;;;23.43;15.40;;;21.70;65.00;;;;;;4986541;28;20217;-91
2021/07/24 07:50:48;;;;;;;26.93;16.87;;;21.50;65.00;;;;;;4997236;28;20431;-91
2021/07/24 07:53:14;;;;;;;25.27;15.80;;;21.60;65.20;;;;;;4989977;28;20230;-91
2021/07/24 07:55:41;;;;;;;22.47;15.90;;;21.80;65.00;;;;;;4981633;28;20199;-91
2021/07/24 07:58:14;;;;;;;26.03;14.80;;;21.80;64.90;;;;;;4983686;28;20430;-92
2021/07/24 08:00:40;;;;;;;24.70;15.90;;;21.70;65.20;;;;;;5010813;28;20434;-91
2021/07/24 08:03:06;;;;;;;27.83;17.90;;;21.80;65.00;;;;;;4996626;28;20465;-91
2021/07/24 08:05:32;;;;;;;22.27;16.47;;;21.90;64.50;;;;;;4996227;28;20418;-91
2021/07/24 08:07:58;;;;;;;23.80;17.27;;;21.60;64.40;;;;;;4996339;28;20249;-91
2021/07/24 08:10:24;;;;;;;20.40;16.43;;;21.70;64.80;;;;;;4997123;28;20469;-91
2021/07/24 08:12:50;;;;;;;23.37;15.80;;;21.80;64.90;;;;;;4997133;28;20469;-91
2021/07/24 08:15:16;;;;;;;23.07;16.90;;;21.80;65.10;;;;;;4997258;28;20421;-91
2021/07/24 08:17:42;;;;;;;22.20;16.30;;;21.90;64.90;;;;;;4980245;28;20965;-91
2021/07/24 08:20:09;;;;;;;25.40;17.63;;;21.90;64.70;;;;;;4994566;28;20450;-91
2021/07/24 08:22:35;;;;;;;26.70;18.03;;;21.90;64.80;;;;;;4999646;28;20803;-91
2021/07/24 08:25:01;;;;;;;26.50;17.57;;;21.90;64.90;;;;;;5007199;28;20418;-91
2021/07/24 08:27:27;;;;;;;24.07;16.30;;;21.80;65.30;;;;;;4998051;28;20434;-91
2021/07/24 08:29:53;;;;;;;23.97;18.23;;;21.80;65.20;;;;;;4997730;28;20469;-91
2021/07/24 08:32:19;;;;;;;22.83;15.80;;;21.80;65.20;;;;;;4994219;28;20195;-91
2021/07/24 08:34:52;;;;;;;26.30;16.40;;;21.70;65.40;;;;;;4994935;28;20414;-91
2021/07/24 08:37:20;;;;;;;20.53;16.03;;;21.60;65.80;;;;;;4996229;28;20425;-91
2021/07/24 08:39:46;;;;;;;24.03;16.73;;;21.80;65.70;;;;;;4995709;28;20442;-91
2021/07/24 08:42:39;;;;;;;22.23;15.43;;;22.00;65.40;;;;;;4994408;28;20504;-91
2021/07/24 08:45:06;;;;;;;21.40;15.73;;;22.10;64.60;;;;;;4994108;28;20786;-91
2021/07/24 08:47:32;;;;;;;19.77;16.67;;;22.10;64.60;;;;;;4994122;28;20418;-91
2021/07/24 08:50:03;;;;;;;32.30;15.37;;;22.20;64.50;;;;;;4994374;28;20419;-91
2021/07/24 08:52:31;;;;;;;18.80;15.27;;;22.30;64.40;;;;;;4996916;28;20509;-93
2021/07/24 08:54:58;;;;;;;23.10;16.10;;;22.40;63.80;;;;;;5000587;28;20430;-91
2021/07/24 08:57:27;;;;;;;23.00;16.07;;;22.50;63.80;;;;;;4994162;28;20422;-91
2021/07/24 08:59:56;;;;;;;24.30;16.57;;;22.60;63.30;;;;;;4997053;28;20479;-91
2021/07/24 09:02:28;;;;;;;27.53;17.93;;;22.60;63.00;;;;;;4996288;28;20438;-91
2021/07/24 09:04:57;;;;;;;25.10;17.10;;;22.50;62.80;;;;;;5006837;28;20414;-90
2021/07/24 09:07:27;;;;;;;26.97;16.93;;;22.50;63.30;;;;;;4998697;28;20892;-91
2021/07/24 09:09:56;;;;;;;22.93;17.37;;;22.70;63.30;;;;;;4993646;28;20423;-91
2021/07/24 09:12:23;;;;;;;19.77;15.87;;;23.00;63.00;;;;;;4993249;28;20508;-91
2021/07/24 09:14:51;;;;;;;23.10;14.90;;;23.00;62.80;;;;;;4993702;28;20410;-91
2021/07/24 09:17:19;;;;;;;23.20;15.33;;;23.10;62.50;;;;;;4993793;28;20410;-91
2021/07/24 09:19:45;;;;;;;23.67;16.63;;;23.30;62.10;;;;;;4994324;28;20477;-91
2021/07/24 09:22:37;;;;;;;29.40;19.17;;;23.50;61.00;;;;;;4994538;28;20838;-91
2021/07/24 09:25:12;;;;;;;21.87;18.53;;;23.50;60.50;;;;;;5012039;28;20190;-91
2021/07/24 09:27:42;;;;;;;24.07;17.63;;;23.50;60.50;;;;;;4994022;28;20417;-91
2021/07/24 09:30:29;;;;;;;26.60;17.80;;;23.20;60.70;;;;;;4993863;28;20504;-91
2021/07/24 09:33:07;;;;;;;24.43;17.40;;;23.00;61.40;;;;;;4993595;28;20449;-92
2021/07/24 09:35:37;;;;;;;26.73;18.23;;;23.20;61.90;;;;;;4993667;28;20428;-91
2021/07/24 09:38:13;;;;;;;26.70;17.97;;;23.20;61.80;;;;;;4993650;28;20462;-91
2021/07/24 09:40:41;;;;;;;20.70;16.00;;;23.10;62.30;;;;;;4978122;28;20426;-91
2021/07/24 09:43:27;;;;;;;27.23;17.60;;;23.10;62.70;;;;;;4993753;28;20879;-91
2021/07/24 09:46:20;;;;;;;25.43;18.10;;;23.30;62.50;;;;;;5002954;28;20434;-91
2021/07/24 09:48:47;;;;;;;23.43;18.07;;;23.10;62.20;;;;;;4988661;28;20470;-91
2021/07/24 09:51:14;;;;;;;24.43;18.30;;;22.90;62.90;;;;;;4994475;28;20438;-91
2021/07/24 09:53:44;;;;;;;25.43;20.03;;;22.70;63.70;;;;;;4994851;28;20438;-91
2021/07/24 09:56:14;;;;;;;25.10;18.97;;;22.80;64.10;;;;;;4994176;28;20753;-91
2021/07/24 09:58:41;;;;;;;24.90;19.17;;;22.70;64.10;;;;;;4994138;28;20419;-91
2021/07/24 10:01:12;;;;;;;27.43;17.90;;;22.80;64.80;;;;;;4993795;28;20429;-91
2021/07/24 10:03:39;;;;;;;21.37;16.27;;;23.00;64.00;;;;;;4994515;28;20442;-91
2021/07/24 10:06:13;;;;;;;21.70;17.60;;;23.10;63.70;;;;;;4994746;28;20425;-91
2021/07/24 10:08:41;;;;;;;27.00;17.93;;;23.00;63.50;;;;;;4994123;28;20597;-91
2021/07/24 10:11:08;;;;;;;30.43;17.30;;;23.00;63.90;;;;;;5008580;28;20449;-92
2021/07/24 10:13:34;;;;;;;20.20;16.90;;;23.20;63.70;;;;;;5002983;28;20504;-91
2021/07/24 10:16:01;;;;;;;27.90;17.10;;;23.30;63.40;;;;;;4993477;28;20415;-91
2021/07/24 10:18:27;;;;;;;31.20;20.07;;;23.50;63.20;;;;;;4995106;28;20430;-91
2021/07/24 10:20:53;;;;;;;26.40;18.53;;;23.80;62.60;;;;;;4993659;28;20442;-90
2021/07/24 10:23:28;;;;;;;22.33;16.80;;;23.90;62.40;;;;;;5002035;28;20857;-91
2021/07/24 10:26:12;;;;;;;22.10;17.10;;;24.00;61.70;;;;;;4997169;28;20209;-91
2021/07/24 10:28:38;;;;;;;21.13;16.57;;;24.20;61.00;;;;;;4996819;28;20461;-91
2021/07/24 10:31:14;;;;;;;23.97;17.40;;;24.40;60.40;;;;;;4998330;28;20430;-91
2021/07/24 10:33:41;;;;;;;24.50;15.87;;;24.50;59.90;;;;;;4996829;28;20654;-92
2021/07/24 10:36:38;;;;;;;26.03;18.40;;;24.60;59.40;;;;;;4997467;28;20453;-91
2021/07/24 10:39:17;;;;;;;25.17;18.07;;;24.60;59.50;;;;;;4996929;28;20480;-91
2021/07/24 10:41:47;;;;;;;28.03;16.97;;;24.80;59.30;;;;;;4996382;28;20540;-91
2021/07/24 10:44:12;;;;;;;21.70;16.50;;;24.80;58.80;;;;;;4998112;28;20440;-91
2021/07/24 10:47:01;;;;;;;23.37;16.73;;;24.70;58.90;;;;;;4996128;28;20992;-91
2021/07/24 10:49:33;;;;;;;22.27;16.73;;;24.80;59.30;;;;;;4996760;28;20267;-91
2021/07/24 10:52:07;;;;;;;20.17;15.50;;;24.70;58.90;;;;;;4996001;28;20442;-91
2021/07/24 10:54:54;;;;;;;23.20;16.97;;;24.60;59.20;;;;;;4996345;28;20418;-91
2021/07/24 10:57:44;;;;;;;28.07;16.90;;;24.70;59.40;;;;;;4996160;28;20426;-91
2021/07/24 11:00:34;;;;;;;23.10;17.30;;;24.60;59.40;;;;;;4995970;28;20477;-92
2021/07/24 11:03:00;;;;;;;18.17;15.43;;;24.40;60.30;;;;;;4991976;28;20492;-91
2021/07/24 11:05:30;;;;;;;21.80;16.10;;;24.50;60.60;;;;;;4996668;28;20418;-91
2021/07/24 11:07:57;;;;;;;23.80;16.00;;;24.50;60.60;;;;;;4998372;28;20483;-91
2021/07/24 11:10:24;;;;;;;24.07;16.97;;;24.50;60.70;;;;;;4996663;28;20452;-91
2021/07/24 11:12:49;;;;;;;23.63;16.43;;;24.40;61.20;;;;;;4996278;28;20494;-91
2021/07/24 11:15:38;;;;;;;16.57;14.23;;;24.40;60.50;;;;;;4997209;28;20429;-91
2021/07/24 11:18:24;;;;;;;21.20;14.87;;;24.50;60.60;;;;;;5024714;28;20202;-91
2021/07/24 11:20:52;;;;;;;20.90;15.70;;;24.50;60.10;;;;;;5006191;28;20418;-91
2021/07/24 11:23:18;;;;;;;21.80;17.57;;;24.60;60.10;;;;;;5004238;28;20883;-90
2021/07/24 11:25:48;;;;;;;21.73;14.27;;;24.50;60.50;;;;;;5007939;28;20433;-91
2021/07/24 11:28:23;;;;;;;19.57;14.43;;;24.40;61.00;;;;;;5011849;28;20469;-91
2021/07/24 11:31:02;;;;;;;22.70;15.20;;;24.50;61.10;;;;;;5011075;28;20427;-90
2021/07/24 11:33:30;;;;;;;22.60;14.17;;;24.50;61.00;;;;;;5011494;28;20521;-90
2021/07/24 11:36:02;;;;;;;20.90;15.93;;;24.30;61.10;;;;;;5007983;28;20423;-90
2021/07/24 11:38:28;;;;;;;24.67;15.60;;;24.00;62.00;;;;;;5009028;28;20929;-90
2021/07/24 11:40:59;;;;;;;21.70;14.13;;;23.90;62.80;;;;;;5008484;28;20441;-91
2021/07/24 11:43:25;;;;;;;18.20;14.87;;;23.90;63.00;;;;;;4995672;28;20261;-91
2021/07/24 11:45:58;;;;;;;22.17;14.40;;;23.70;63.50;;;;;;5010977;28;20422;-91
2021/07/24 11:48:24;;;;;;;25.57;14.00;;;23.90;63.80;;;;;;5004958;28;20467;-91
2021/07/24 11:51:03;;;;;;;17.10;14.50;;;24.00;63.50;;;;;;4995152;28;20921;-91
2021/07/24 11:53:30;;;;;;;17.97;14.37;;;24.00;63.30;;;;;;4995007;28;20210;-91
2021/07/24 11:55:55;;;;;;;21.43;15.70;;;24.20;63.20;;;;;;4995876;28;20453;-91
2021/07/24 11:58:21;;;;;;;18.60;14.67;;;24.20;63.00;;;;;;4997030;28;20770;-91
2021/07/24 12:00:53;;;;;;;21.00;13.97;;;24.00;63.20;;;;;;4995157;28;20353;-91
2021/07/24 12:03:19;;;;;;;17.53;13.50;;;24.00;63.60;;;;;;4994879;28;20240;-91
2021/07/24 12:05:48;;;;;;;20.30;14.50;;;24.00;63.60;;;;;;4995551;28;20442;-91
2021/07/24 12:08:16;;;;;;;16.10;14.20;;;24.10;63.50;;;;;;4995144;28;20462;-91
2021/07/24 12:10:44;;;;;;;22.73;15.27;;;24.20;63.30;;;;;;4995690;28;20432;-91
2021/07/24 12:13:11;;;;;;;19.03;13.43;;;24.30;63.40;;;;;;4997255;28;20458;-91
2021/07/24 12:16:01;;;;;;;20.30;14.47;;;24.10;63.20;;;;;;5001234;28;20468;-91
2021/07/24 12:18:54;;;;;;;19.57;13.33;;;24.20;63.20;;;;;;4995743;28;20427;-91
2021/07/24 12:21:23;;;;;;;23.80;15.50;;;24.10;63.00;;;;;;5010541;28;20418;-91
2021/07/24 12:23:59;;;;;;;26.90;15.57;;;24.10;63.00;;;;;;5010995;28;20437;-91
2021/07/24 12:26:31;;;;;;;18.63;14.60;;;24.00;63.10;;;;;;4995279;28;20414;-92
2021/07/24 12:28:58;;;;;;;20.73;14.50;;;24.00;63.50;;;;;;4996417;28;20535;-91
2021/07/24 12:31:30;;;;;;;23.63;14.60;;;24.20;63.30;;;;;;4993786;28;20423;-91
2021/07/24 12:34:00;;;;;;;26.03;13.93;;;24.20;63.10;;;;;;4994654;28;20428;-91
2021/07/24 12:36:29;;;;;;;17.30;13.40;;;24.20;63.30;;;;;;4995572;28;20426;-91